Time;durP1;ratioP1;P1;durP2;ratioP2;P2;SDS_P1;SDS_P2;PMS_P1;PMS_P2;Temp;Humidity;BMP_temperature;BMP_pressure;BME280_temperature;BME280_humidity;BME280_pressure;Samples;Min_cycle;Max_cycle;Signal;HPM_P1;HPM_P2
2023/10/16 00:00:29;;;;;;;0.10;0.10;;;;;;;8.28;85.43;98535.19;5087274;28;20062;-65
2023/10/16 00:02:59;;;;;;;0.10;0.10;;;;;;;8.26;85.42;98523.75;5088357;28;20044;-69
2023/10/16 00:05:28;;;;;;;0.10;0.10;;;;;;;8.27;85.45;98519.13;5064468;28;20056;-69
2023/10/16 00:07:56;;;;;;;0.03;0.03;;;;;;;8.28;85.54;98516.13;5076349;28;20051;-69
2023/10/16 00:10:24;;;;;;;0.10;0.10;;;;;;;8.30;85.42;98527.53;5099504;28;20071;-70
2023/10/16 00:12:51;;;;;;;0.00;0.00;;;;;;;8.29;84.84;98531.34;5085299;28;20052;-69
2023/10/16 00:15:19;;;;;;;0.10;0.10;;;;;;;8.30;84.96;98537.59;5122316;27;20059;-69
2023/10/16 00:17:45;;;;;;;0.10;0.10;;;;;;;8.31;84.67;98531.03;5090011;28;20408;-66
2023/10/16 00:20:14;;;;;;;0.10;0.10;;;;;;;8.32;84.75;98535.38;5087444;28;20052;-69
2023/10/16 00:22:43;;;;;;;0.10;0.10;;;;;;;8.32;85.02;98519.03;5086336;28;20040;-70
2023/10/16 00:25:10;;;;;;;0.10;0.10;;;;;;;8.32;85.15;98522.59;5088431;28;20073;-69
2023/10/16 00:27:38;;;;;;;0.10;0.10;;;;;;;8.37;84.69;98524.44;5117513;27;20097;-69
2023/10/16 00:30:07;;;;;;;0.10;0.10;;;;;;;8.38;84.32;98517.91;5085857;28;20097;-65
2023/10/16 00:32:37;;;;;;;0.10;0.10;;;;;;;8.36;84.65;98510.00;5092485;28;20091;-66
2023/10/16 00:35:04;;;;;;;0.10;0.10;;;;;;;8.33;84.53;98505.16;5068938;28;19949;-65
2023/10/16 00:37:32;;;;;;;0.10;0.10;;;;;;;8.35;85.02;98507.56;5087477;28;20044;-66
2023/10/16 00:39:58;;;;;;;0.10;0.10;;;;;;;8.37;84.51;98514.34;5070661;28;21349;-67
2023/10/16 00:42:25;;;;;;;0.10;0.10;;;;;;;8.37;84.44;98513.56;5106354;28;20495;-65
2023/10/16 00:44:59;;;;;;;0.10;0.10;;;;;;;8.38;84.91;98515.19;5104987;28;20104;-66
2023/10/16 00:47:26;;;;;;;0.10;0.10;;;;;;;8.37;84.83;98510.84;5072755;28;20399;-66
2023/10/16 00:49:54;;;;;;;0.10;0.10;;;;;;;8.37;84.68;98508.09;5072975;28;20047;-66
2023/10/16 00:52:20;;;;;;;;;;;;;;;8.35;84.64;98505.66;5106806;28;20130;-65
2023/10/16 00:54:47;;;;;;;0.10;0.10;;;;;;;8.35;84.29;98515.75;5087284;28;19924;-65
2023/10/16 00:57:14;;;;;;;0.10;0.10;;;;;;;8.31;84.34;98525.59;5088383;28;20593;-66
2023/10/16 00:59:41;;;;;;;0.10;0.10;;;;;;;8.28;83.85;98529.72;5087178;28;20138;-66
2023/10/16 01:02:13;;;;;;;0.10;0.10;;;;;;;8.23;83.50;98530.59;5087936;28;20097;-65
2023/10/16 01:04:40;;;;;;;0.10;0.10;;;;;;;8.24;83.79;98536.84;5108108;28;20043;-66
2023/10/16 01:07:09;;;;;;;0.10;0.10;;;;;;;8.25;83.96;98534.94;5104874;28;20043;-66
2023/10/16 01:09:36;;;;;;;0.10;0.10;;;;;;;8.25;84.65;98527.56;5086258;28;20051;-66
2023/10/16 01:12:06;;;;;;;0.10;0.10;;;;;;;8.22;84.57;98526.25;5086030;28;20542;-66
2023/10/16 01:14:33;;;;;;;0.03;0.03;;;;;;;8.18;84.80;98533.34;5086560;28;20139;-66
2023/10/16 01:17:00;;;;;;;0.10;0.10;;;;;;;8.15;84.71;98531.22;5069587;28;20078;-66
2023/10/16 01:19:28;;;;;;;0.10;0.10;;;;;;;8.15;84.56;98535.88;5104997;28;20044;-67
2023/10/16 01:21:58;;;;;;;0.10;0.10;;;;;;;8.14;85.07;98532.31;5070506;28;20048;-66
2023/10/16 01:24:27;;;;;;;0.10;0.10;;;;;;;8.12;85.34;98531.81;5086181;28;20051;-66
2023/10/16 01:26:59;;;;;;;0.10;0.10;;;;;;;8.09;85.63;98526.94;5084867;28;20254;-66
2023/10/16 01:29:27;;;;;;;0.10;0.10;;;;;;;8.07;85.71;98529.94;5087672;28;20047;-67
2023/10/16 01:31:54;;;;;;;0.10;0.10;;;;;;;8.06;85.75;98528.31;5088424;28;20047;-66
2023/10/16 01:34:22;;;;;;;0.00;0.00;;;;;;;8.11;85.74;98524.75;5069101;28;20056;-69
2023/10/16 01:36:51;;;;;;;0.08;0.08;;;;;;;8.11;85.80;98532.09;5108470;28;20055;-67
2023/10/16 01:42:11;;;;;;;0.10;0.10;;;;;;;8.07;85.70;98529.16;5101205;28;20048;-66
2023/10/16 01:44:39;;;;;;;0.10;0.10;;;;;;;8.08;85.36;98525.31;5087095;28;20047;-66
2023/10/16 01:47:13;;;;;;;0.10;0.10;;;;;;;8.07;85.33;98518.25;5087554;28;20058;-66
2023/10/16 01:49:40;;;;;;;0.10;0.10;;;;;;;8.05;84.45;98518.53;5084722;28;20048;-64
2023/10/16 01:52:10;;;;;;;0.10;0.10;;;;;;;8.03;84.77;98520.75;5084282;28;20077;-65
2023/10/16 01:54:40;;;;;;;0.10;0.10;;;;;;;8.03;84.88;98511.75;5085546;28;20055;-64
2023/10/16 01:57:12;;;;;;;0.10;0.10;;;;;;;8.03;85.73;98509.84;5085208;28;20035;-66
2023/10/16 01:59:41;;;;;;;0.10;0.10;;;;;;;8.02;85.09;98513.69;5104348;28;20097;-66
2023/10/16 02:02:09;;;;;;;0.10;0.10;;;;;;;8.03;84.60;98515.31;5089582;28;20050;-65
2023/10/16 02:04:37;;;;;;;0.10;0.10;;;;;;;8.02;84.80;98504.69;5105082;28;20463;-65
2023/10/16 02:07:04;;;;;;;0.10;0.10;;;;;;;7.95;84.78;98505.84;5086895;28;20044;-65
2023/10/16 02:09:31;;;;;;;0.10;0.10;;;;;;;7.96;84.69;98501.25;5105062;28;20042;-66
2023/10/16 02:11:59;;;;;;;0.10;0.10;;;;;;;7.94;84.77;98506.97;5104968;28;20063;-69
2023/10/16 02:14:27;;;;;;;0.10;0.10;;;;;;;7.98;84.81;98500.94;5120334;27;20052;-69
2023/10/16 02:16:53;;;;;;;0.10;0.10;;;;;;;7.98;84.73;98507.19;5103149;28;20501;-69
2023/10/16 02:19:20;;;;;;;0.10;0.10;;;;;;;7.97;84.93;98504.75;5101813;28;20062;-70
2023/10/16 02:21:49;;;;;;;0.10;0.10;;;;;;;7.99;84.58;98505.28;5103978;28;20051;-69
2023/10/16 02:24:16;;;;;;;0.05;0.05;;;;;;;7.97;84.51;98504.75;5088091;28;20048;-65
2023/10/16 02:27:02;;;;;;;0.10;0.10;;;;;;;8.00;84.56;98506.91;5105201;28;20370;-70
2023/10/16 02:29:31;;;;;;;0.10;0.10;;;;;;;8.01;84.30;98505.78;5103060;28;20142;-70
2023/10/16 02:32:03;;;;;;;0.10;0.10;;;;;;;8.00;84.48;98515.06;5103949;28;20069;-70
2023/10/16 02:34:33;;;;;;;0.10;0.10;;;;;;;8.00;84.18;98512.34;5069544;28;20326;-69
2023/10/16 02:37:01;;;;;;;0.10;0.10;;;;;;;8.03;83.92;98500.88;5089981;28;20051;-69
2023/10/16 02:39:35;;;;;;;0.00;0.00;;;;;;;8.03;83.74;98504.41;5105280;28;20470;-69
2023/10/16 02:42:08;;;;;;;0.10;0.10;;;;;;;7.99;83.06;98500.66;5070264;28;20055;-69
2023/10/16 02:44:45;;;;;;;0.10;0.10;;;;;;;8.00;82.96;98506.91;5053638;28;20070;-69
2023/10/16 02:47:21;;;;;;;0.10;0.10;;;;;;;7.94;83.29;98508.84;5071040;28;20048;-69
2023/10/16 02:49:48;;;;;;;0.10;0.10;;;;;;;7.88;83.47;98504.59;5084895;28;20597;-68
2023/10/16 02:52:16;;;;;;;0.00;0.00;;;;;;;7.86;83.55;98502.13;5087983;28;20054;-70
2023/10/16 02:54:43;;;;;;;0.10;0.10;;;;;;;7.88;83.73;98493.69;5083835;28;20586;-69
2023/10/16 02:57:10;;;;;;;0.00;0.00;;;;;;;7.89;83.65;98507.03;5085133;28;20078;-69
2023/10/16 02:59:38;;;;;;;0.10;0.10;;;;;;;7.89;83.59;98512.47;5104586;28;20036;-70
2023/10/16 03:02:13;;;;;;;0.10;0.10;;;;;;;7.89;83.28;98509.75;5085070;28;20548;-69
2023/10/16 03:04:40;;;;;;;0.10;0.10;;;;;;;7.88;83.33;98515.47;5068998;28;20061;-70
2023/10/16 03:07:07;;;;;;;;;;;;;;;7.89;83.25;98515.19;5085416;28;20058;-69
2023/10/16 03:09:33;;;;;;;0.10;0.10;;;;;;;7.90;83.39;98519.53;5105755;28;20853;-70
2023/10/16 03:12:08;;;;;;;0.10;0.10;;;;;;;7.92;83.32;98530.94;5104386;28;20047;-70
2023/10/16 03:14:45;;;;;;;0.10;0.10;;;;;;;7.90;83.35;98530.41;5104974;28;20421;-70
2023/10/16 03:17:26;;;;;;;0.10;0.10;;;;;;;7.87;82.82;98536.41;5085853;28;20040;-70
2023/10/16 03:19:55;;;;;;;0.10;0.10;;;;;;;7.87;83.33;98520.09;5103178;28;20146;-69
2023/10/16 03:22:22;;;;;;;0.10;0.10;;;;;;;7.87;83.40;98522.81;5070076;28;20043;-69
2023/10/16 03:24:49;;;;;;;;;;;;;;;7.86;83.31;98518.47;5086936;28;20047;-69
2023/10/16 03:27:28;;;;;;;0.10;0.10;;;;;;;7.89;83.14;98517.09;5084701;28;19924;-70
2023/10/16 03:29:56;;;;;;;0.10;0.10;;;;;;;7.92;83.45;98500.16;5102848;28;20096;-70
2023/10/16 03:32:23;;;;;;;0.10;0.10;;;;;;;7.90;83.50;98511.38;5104471;28;20055;-70
2023/10/16 03:34:52;;;;;;;0.10;0.10;;;;;;;7.86;83.57;98509.50;5086776;28;20051;-70
2023/10/16 03:37:18;;;;;;;0.10;0.10;;;;;;;7.92;83.19;98522.78;5101266;28;20058;-70
2023/10/16 03:39:46;;;;;;;0.00;0.00;;;;;;;7.94;82.45;98511.56;5083572;28;20040;-70
2023/10/16 03:42:17;;;;;;;0.10;0.10;;;;;;;7.91;82.11;98498.56;5105428;28;20040;-70
2023/10/16 03:44:43;;;;;;;0.00;0.00;;;;;;;7.87;82.90;98513.84;5089734;28;20050;-69
2023/10/16 03:47:10;;;;;;;0.10;0.10;;;;;;;7.92;83.03;98508.34;5105450;28;20047;-69
2023/10/16 03:49:38;;;;;;;0.10;0.10;;;;;;;7.97;82.91;98494.69;5074389;28;20058;-70
2023/10/16 03:52:07;;;;;;;0.10;0.10;;;;;;;7.99;82.50;98503.38;5091442;28;20248;-66
2023/10/16 03:54:35;;;;;;;0.10;0.10;;;;;;;8.01;82.42;98503.91;5086983;28;20086;-66
2023/10/16 03:57:09;;;;;;;0.00;0.00;;;;;;;7.99;81.66;98492.50;5105649;28;20044;-66
2023/10/16 03:59:38;;;;;;;0.17;0.10;;;;;;;7.94;81.68;98484.34;5125709;27;20039;-66
2023/10/16 04:02:05;;;;;;;0.10;0.10;;;;;;;7.87;81.34;98484.69;5088811;28;20044;-65
2023/10/16 04:04:32;;;;;;;0.10;0.10;;;;;;;7.79;81.60;98475.25;5088971;28;20055;-66
2023/10/16 04:06:59;;;;;;;0.10;0.10;;;;;;;7.76;81.65;98470.41;5107515;28;20052;-66
2023/10/16 04:09:30;;;;;;;0.10;0.10;;;;;;;7.73;82.07;98476.44;5108331;28;20048;-65
2023/10/16 04:11:57;;;;;;;0.10;0.10;;;;;;;7.76;81.78;98483.22;5108510;28;20504;-65
2023/10/16 04:17:11;;;;;;;0.10;0.10;;;;;;;7.77;80.79;98468.50;5101777;28;20086;-69
2023/10/16 04:19:52;;;;;;;0.10;0.10;;;;;;;7.73;80.92;98481.06;5087051;28;20054;-66
2023/10/16 04:22:25;;;;;;;0.10;0.10;;;;;;;7.67;81.37;98488.47;4733998;28;10000856;-70
2023/10/16 04:24:54;;;;;;;0.00;0.00;;;;;;;7.70;81.67;98493.34;5102264;28;20035;-65
2023/10/16 04:30:06;;;;;;;0.10;0.10;;;;;;;7.77;82.17;98480.19;5101160;28;20428;-65
2023/10/16 04:32:56;;;;;;;0.10;0.10;;;;;;;7.84;82.26;98488.00;5083331;28;20063;-70
2023/10/16 04:35:52;;;;;;;0.10;0.10;;;;;;;7.87;82.05;98492.88;5102900;28;20044;-66
2023/10/16 04:38:30;;;;;;;0.10;0.10;;;;;;;7.87;81.83;98494.78;5082462;28;20052;-66
2023/10/16 04:46:54;;;;;;;0.10;0.10;;;;;;;7.84;82.32;98477.13;5108354;28;20079;-66
2023/10/16 04:49:14;;;;;;;0.10;0.10;;;;;;;7.87;81.43;98473.81;5086482;28;20400;-66
2023/10/16 04:51:52;;;;;;;0.10;0.10;;;;;;;7.89;81.84;98484.44;5061075;28;20468;-66
2023/10/16 04:57:37;;;;;;;0.10;0.10;;;;;;;7.94;80.79;98498.78;5094528;28;20513;-66
2023/10/16 05:00:00;;;;;;;0.05;0.05;;;;;;;7.89;79.69;98495.31;5078410;28;20059;-65
2023/10/16 05:02:52;;;;;;;0.10;0.10;;;;;;;7.84;79.40;98484.50;5093613;28;20399;-66
2023/10/16 05:08:31;;;;;;;0.10;0.10;;;;;;;7.82;79.59;98492.94;5079697;28;20093;-66
2023/10/16 05:16:36;;;;;;;0.10;0.10;;;;;;;7.71;79.62;98484.06;5097399;28;20054;-66
2023/10/16 05:19:03;;;;;;;0.10;0.10;;;;;;;7.71;79.88;98483.25;5088822;28;20047;-66
2023/10/16 05:22:02;;;;;;;0.10;0.10;;;;;;;7.72;79.66;98480.25;5092604;28;20044;-66
2023/10/16 06:14:14;;;;;;;0.10;0.10;;;;;;;7.84;82.86;98462.72;5100560;28;20535;-69
2023/10/16 06:16:44;;;;;;;0.10;0.10;;;;;;;7.87;82.63;98467.59;5086705;28;20066;-69
2023/10/16 06:19:17;;;;;;;0.10;0.10;;;;;;;7.93;82.22;98474.56;5106685;28;20102;-70
2023/10/16 06:21:46;;;;;;;0.00;0.00;;;;;;;7.94;81.58;98482.47;5072555;28;20035;-70
2023/10/16 06:24:25;;;;;;;0.10;0.10;;;;;;;7.92;80.86;98492.00;5107780;28;20078;-70
2023/10/16 06:26:52;;;;;;;0.00;0.00;;;;;;;7.85;80.36;98481.47;5071823;28;20048;-69
2023/10/16 06:29:18;;;;;;;0.10;0.10;;;;;;;7.82;80.88;98471.16;5107208;28;20051;-70
2023/10/16 06:31:49;;;;;;;0.10;0.10;;;;;;;7.87;81.01;98481.97;5101441;28;20090;-70
2023/10/16 06:34:15;;;;;;;0.10;0.10;;;;;;;7.87;80.87;98473.03;5083789;28;20085;-70
2023/10/16 06:36:42;;;;;;;0.10;0.10;;;;;;;7.88;80.86;98471.91;5079935;28;20039;-70
2023/10/16 06:39:22;;;;;;;0.10;0.10;;;;;;;7.90;80.27;98475.16;5098456;28;20098;-70
2023/10/16 06:41:54;;;;;;;0.10;0.10;;;;;;;7.87;80.54;98475.75;5073048;28;20035;-70
2023/10/16 06:44:28;;;;;;;0.00;0.00;;;;;;;7.94;80.13;98476.19;5072852;28;20067;-70
2023/10/16 06:46:59;;;;;;;0.10;0.10;;;;;;;7.97;80.05;98483.81;5071648;28;20032;-69
2023/10/16 06:49:27;;;;;;;0.10;0.10;;;;;;;7.93;80.31;98471.84;5104954;28;20043;-69
2023/10/16 06:51:56;;;;;;;0.10;0.10;;;;;;;7.88;80.49;98471.91;5104241;28;20130;-66
2023/10/16 06:54:25;;;;;;;0.10;0.10;;;;;;;7.80;81.11;98463.31;5090724;28;20074;-66
2023/10/16 06:56:52;;;;;;;0.10;0.10;;;;;;;7.77;81.57;98469.31;5088044;28;20115;-69
2023/10/16 06:59:18;;;;;;;0.10;0.10;;;;;;;7.66;82.15;98462.38;5105102;28;20077;-69
2023/10/16 07:01:46;;;;;;;0.10;0.10;;;;;;;7.60;82.71;98450.72;5100908;28;20052;-70
2023/10/16 07:04:16;;;;;;;0.10;0.10;;;;;;;7.56;83.39;98457.03;5103406;28;20056;-69
2023/10/16 07:06:44;;;;;;;0.10;0.10;;;;;;;7.50;83.91;98464.41;5072598;28;20086;-70
2023/10/16 07:09:12;;;;;;;0.10;0.10;;;;;;;7.42;84.02;98449.53;5081218;28;20056;-69
2023/10/16 07:11:42;;;;;;;0.10;0.10;;;;;;;7.40;85.20;98446.28;5053976;28;20048;-69
2023/10/16 07:14:12;;;;;;;0.10;0.10;;;;;;;7.40;86.02;98448.19;5086488;28;20611;-65
2023/10/16 07:16:41;;;;;;;0.10;0.10;;;;;;;7.36;86.44;98442.53;5095856;28;20100;-65
2023/10/16 07:19:08;;;;;;;0.10;0.10;;;;;;;7.31;86.00;98442.56;5101829;28;20418;-65
2023/10/16 07:21:35;;;;;;;0.10;0.10;;;;;;;7.22;86.55;98439.66;5083967;28;20071;-66
2023/10/16 07:24:03;;;;;;;0.10;0.10;;;;;;;7.23;86.92;98439.38;5083462;28;20035;-67
2023/10/16 07:26:29;;;;;;;0.00;0.00;;;;;;;7.19;87.49;98435.63;5068231;28;20146;-66
2023/10/16 07:28:58;;;;;;;0.10;0.10;;;;;;;7.22;87.58;98442.38;5093446;28;20147;-66
2023/10/16 07:31:26;;;;;;;0.10;0.10;;;;;;;7.23;87.59;98441.28;5108715;28;20047;-65
2023/10/16 07:33:59;;;;;;;0.10;0.10;;;;;;;7.26;87.75;98437.19;5110457;28;20055;-66
2023/10/16 07:36:28;;;;;;;0.10;0.10;;;;;;;7.31;87.68;98434.41;5093632;28;20077;-65
2023/10/16 07:38:57;;;;;;;0.10;0.10;;;;;;;7.27;87.22;98438.81;5059833;28;20056;-65
2023/10/16 07:41:23;;;;;;;0.10;0.10;;;;;;;7.23;87.08;98438.56;5108695;28;20047;-65
2023/10/16 07:43:56;;;;;;;0.10;0.10;;;;;;;7.21;86.82;98433.44;5092174;28;20606;-65
2023/10/16 07:46:32;;;;;;;0.10;0.10;;;;;;;7.21;86.93;98435.31;5109127;28;20051;-65
2023/10/16 07:49:18;;;;;;;0.10;0.10;;;;;;;7.18;86.83;98430.47;5092969;28;20598;-65
2023/10/16 07:51:45;;;;;;;0.10;0.10;;;;;;;7.22;87.10;98436.94;5076341;28;20218;-65
2023/10/16 07:54:13;;;;;;;0.10;0.10;;;;;;;7.20;86.84;98429.09;5075643;28;20093;-65
2023/10/16 07:56:40;;;;;;;0.10;0.10;;;;;;;7.22;86.67;98423.34;5073506;28;20281;-65
2023/10/16 07:59:06;;;;;;;0.10;0.10;;;;;;;7.22;86.79;98423.34;5104993;28;20544;-66
2023/10/16 08:01:36;;;;;;;0.10;0.10;;;;;;;7.15;86.85;98418.25;5079997;28;20069;-65
2023/10/16 08:04:05;;;;;;;0.10;0.10;;;;;;;7.17;86.80;98410.59;5089965;28;20069;-65
2023/10/16 08:06:33;;;;;;;0.10;0.10;;;;;;;7.17;87.03;98407.09;5090621;28;20442;-65
2023/10/16 08:11:46;;;;;;;0.10;0.10;;;;;;;7.17;87.82;98409.81;5108968;28;20062;-65
2023/10/16 08:14:15;;;;;;;0.10;0.10;;;;;;;7.00;88.10;98399.34;5108957;28;20082;-65
2023/10/16 08:16:42;;;;;;;0.10;0.10;;;;;;;6.93;88.80;98405.94;5083442;28;20052;-66
2023/10/16 08:19:24;;;;;;;0.10;0.10;;;;;;;6.94;89.68;98413.00;5098180;28;20161;-65
2023/10/16 08:21:56;;;;;;;0.10;0.10;;;;;;;6.83;90.69;98405.22;5087257;28;20043;-65
2023/10/16 08:24:24;;;;;;;0.00;0.00;;;;;;;6.64;91.19;98403.19;5071116;28;20152;-65
2023/10/16 08:26:52;;;;;;;0.10;0.10;;;;;;;6.58;92.18;98409.72;5090927;28;20136;-66
2023/10/16 08:29:34;;;;;;;0.10;0.10;;;;;;;6.51;93.08;98400.00;5089041;28;20129;-66
2023/10/16 08:34:53;;;;;;;0.10;0.10;;;;;;;6.49;94.43;98396.78;5071100;28;20083;-65
2023/10/16 08:37:22;;;;;;;0.10;0.10;;;;;;;6.43;95.17;98397.09;5106852;28;20070;-65
2023/10/16 08:39:48;;;;;;;0.10;0.10;;;;;;;6.43;95.49;98410.66;5108485;28;20104;-65
2023/10/16 08:42:19;;;;;;;0.10;0.10;;;;;;;6.42;95.13;98398.19;5073184;28;20039;-65
2023/10/16 08:45:29;;;;;;;0.10;0.10;;;;;;;6.35;94.99;98404.72;5085010;28;20047;-65
2023/10/16 08:47:36;;;;;;;0.10;0.10;;;;;;;6.26;95.37;98397.44;5082818;28;20155;-66
2023/10/16 08:50:06;;;;;;;0.00;0.00;;;;;;;6.24;96.12;98414.81;5107589;28;20054;-65
2023/10/16 08:52:36;;;;;;;0.10;0.10;;;;;;;6.21;96.24;98403.72;5109585;28;20055;-69
2023/10/16 08:55:14;;;;;;;0.10;0.10;;;;;;;6.22;96.33;98405.34;5108346;28;20456;-69
2023/10/16 08:57:42;;;;;;;0.10;0.10;;;;;;;6.20;96.21;98411.06;5100351;28;20146;-66
2023/10/16 09:00:10;;;;;;;0.10;0.10;;;;;;;6.28;95.54;98408.84;5087463;28;20035;-66
2023/10/16 09:02:39;;;;;;;0.10;0.10;;;;;;;6.24;94.74;98409.41;5109580;28;20495;-69
2023/10/16 09:05:08;;;;;;;0.10;0.10;;;;;;;6.27;94.78;98401.78;5108712;28;20418;-69
2023/10/16 09:07:39;;;;;;;0.10;0.10;;;;;;;6.33;94.87;98398.75;5087495;27;20379;-69
2023/10/16 09:10:10;;;;;;;0.00;0.00;;;;;;;6.34;94.20;98389.53;5093302;28;20043;-69
2023/10/16 09:13:07;;;;;;;0.10;0.10;;;;;;;6.42;93.50;98398.97;5109413;28;20044;-69
2023/10/16 09:15:32;;;;;;;0.10;0.10;;;;;;;6.37;93.34;98393.59;5096853;27;20051;-66
2023/10/16 09:17:59;;;;;;;0.10;0.10;;;;;;;6.29;92.60;98392.28;5058608;28;20050;-70
2023/10/16 09:20:39;;;;;;;0.00;0.00;;;;;;;6.24;93.01;98395.00;5080000;28;20097;-69
2023/10/16 09:23:07;;;;;;;0.10;0.10;;;;;;;6.27;92.80;98393.63;5089614;28;20429;-69
2023/10/16 09:25:34;;;;;;;0.10;0.10;;;;;;;6.29;93.19;98395.00;5081386;28;20096;-65
2023/10/16 09:28:01;;;;;;;0.10;0.10;;;;;;;6.32;93.16;98390.88;5110608;28;20105;-69
2023/10/16 09:30:32;;;;;;;0.10;0.10;;;;;;;6.29;92.70;98391.44;5089751;28;20541;-69
2023/10/16 09:33:00;;;;;;;0.10;0.10;;;;;;;6.30;92.91;98391.19;5086474;28;20600;-65
2023/10/16 09:35:32;;;;;;;0.10;0.10;;;;;;;6.30;92.49;98364.03;5071022;28;20117;-65
2023/10/16 09:38:11;;;;;;;0.10;0.10;;;;;;;6.34;92.63;98370.50;5115329;27;20041;-69
2023/10/16 09:40:37;;;;;;;0.10;0.10;;;;;;;6.41;92.40;98374.84;5080818;28;20102;-69
2023/10/16 09:43:13;;;;;;;0.10;0.10;;;;;;;6.38;92.07;98370.78;5088813;28;20051;-65
2023/10/16 09:45:47;;;;;;;0.10;0.10;;;;;;;6.39;92.22;98373.19;5065032;28;20093;-66
2023/10/16 09:48:19;;;;;;;0.10;0.10;;;;;;;6.43;91.99;98369.94;5073230;28;20052;-66
2023/10/16 09:50:47;;;;;;;0.10;0.10;;;;;;;6.43;91.48;98380.78;5084796;28;20124;-65
2023/10/16 09:53:14;;;;;;;0.10;0.10;;;;;;;6.38;91.15;98371.56;5069419;28;20074;-65
2023/10/16 09:55:48;;;;;;;0.10;0.10;;;;;;;6.42;90.54;98379.16;5083890;28;20071;-69
2023/10/16 09:58:18;;;;;;;0.00;0.00;;;;;;;6.42;90.69;98373.75;5079755;28;20052;-69
2023/10/16 10:00:49;;;;;;;0.10;0.10;;;;;;;6.47;90.81;98379.91;5076235;28;20059;-69
2023/10/16 10:03:17;;;;;;;0.10;0.10;;;;;;;6.49;90.73;98379.66;5095451;28;20074;-69
2023/10/16 10:05:55;;;;;;;0.10;0.10;;;;;;;6.54;90.07;98371.47;5084376;28;20472;-69
2023/10/16 10:08:28;;;;;;;0.10;0.10;;;;;;;6.44;89.63;98382.41;5048651;28;20049;-69
2023/10/16 10:11:23;;;;;;;0.10;0.10;;;;;;;6.33;89.88;98376.25;5066048;28;20511;-69
2023/10/16 10:14:09;;;;;;;0.10;0.10;;;;;;;6.32;90.26;98378.13;5078812;28;20429;-69
2023/10/16 10:16:39;;;;;;;0.08;0.08;;;;;;;6.32;90.00;98375.41;5073479;28;20050;-69
2023/10/16 10:19:23;;;;;;;0.10;0.10;;;;;;;6.29;90.36;98369.72;5100095;28;20059;-69
2023/10/16 10:21:53;;;;;;;0.10;0.10;;;;;;;6.28;90.55;98368.94;5088601;28;20597;-69
2023/10/16 10:24:20;;;;;;;0.10;0.10;;;;;;;6.23;91.13;98358.91;5085748;28;20515;-69
2023/10/16 10:26:51;;;;;;;0.10;0.10;;;;;;;6.26;91.80;98354.84;5085510;28;20048;-69
2023/10/16 10:29:20;;;;;;;0.10;0.10;;;;;;;6.20;91.95;98353.25;5085854;28;20458;-69
2023/10/16 10:31:48;;;;;;;0.03;0.03;;;;;;;6.25;92.31;98353.22;5083559;28;20050;-69
2023/10/16 10:34:22;;;;;;;0.10;0.10;;;;;;;6.24;93.11;98357.00;5106809;28;20515;-69
2023/10/16 10:36:50;;;;;;;0.10;0.10;;;;;;;6.24;93.34;98355.09;5107169;28;20046;-69
2023/10/16 10:39:43;;;;;;;0.10;0.10;;;;;;;6.13;93.20;98364.41;5109080;28;20055;-69
2023/10/16 10:42:16;;;;;;;0.00;0.00;;;;;;;6.13;93.62;98361.69;5090997;28;20527;-69
2023/10/16 10:44:53;;;;;;;0.10;0.10;;;;;;;6.10;93.48;98345.97;5108538;28;20130;-69
2023/10/16 10:47:24;;;;;;;0.10;0.10;;;;;;;6.17;93.83;98341.06;5107579;28;20066;-69
2023/10/16 10:49:51;;;;;;;0.10;0.10;;;;;;;6.27;93.84;98342.88;5091576;28;20046;-70
2023/10/16 10:52:20;;;;;;;0.10;0.10;;;;;;;6.29;93.41;98331.72;5111484;28;20060;-70
2023/10/16 10:54:57;;;;;;;0.10;0.10;;;;;;;6.36;93.22;98330.31;5090800;28;20051;-70
2023/10/16 10:57:26;;;;;;;0.10;0.10;;;;;;;6.41;92.52;98323.25;5110497;28;20039;-69
2023/10/16 11:05:23;;;;;;;0.10;0.10;;;;;;;6.53;92.40;98315.53;5092867;28;20050;-69
2023/10/16 11:10:41;;;;;;;0.10;0.10;;;;;;;6.62;92.32;98313.00;5064680;28;20040;-66
2023/10/16 11:13:10;;;;;;;0.10;0.10;;;;;;;6.59;91.83;98308.16;5088191;28;20063;-66
2023/10/16 11:15:45;;;;;;;0.10;0.10;;;;;;;6.62;91.71;98302.97;5077494;28;20043;-66
2023/10/16 11:18:18;;;;;;;0.10;0.10;;;;;;;6.63;91.71;98307.31;5085403;28;20079;-65
2023/10/16 11:20:46;;;;;;;0.10;0.10;;;;;;;6.61;91.45;98292.38;5105546;28;20044;-66
2023/10/16 11:23:13;;;;;;;0.10;0.10;;;;;;;6.66;91.98;98304.00;5111853;28;20088;-65
2023/10/16 11:25:43;;;;;;;0.00;0.00;;;;;;;6.73;92.08;98302.88;5109219;28;20507;-66
2023/10/16 11:28:13;;;;;;;0.10;0.10;;;;;;;6.80;92.05;98296.03;5087479;28;20097;-66
2023/10/16 11:30:39;;;;;;;0.10;0.10;;;;;;;6.83;92.01;98299.25;5069568;28;20067;-66
2023/10/16 11:33:09;;;;;;;0.10;0.10;;;;;;;6.85;92.55;98303.28;5082432;28;20052;-66
2023/10/16 11:35:42;;;;;;;0.10;0.10;;;;;;;6.79;92.47;98302.56;5079395;28;20417;-66
2023/10/16 11:38:13;;;;;;;0.10;0.10;;;;;;;6.81;92.58;98291.38;5086570;28;20046;-69
2023/10/16 11:40:42;;;;;;;0.10;0.10;;;;;;;6.86;93.23;98288.59;5098638;28;20052;-70
2023/10/16 11:43:11;;;;;;;0.10;0.10;;;;;;;6.81;92.65;98283.22;5096683;28;20686;-69
2023/10/16 11:45:38;;;;;;;0.10;0.10;;;;;;;6.76;93.00;98283.28;5074682;28;20163;-70
2023/10/16 11:48:21;;;;;;;0.10;0.10;;;;;;;6.74;93.17;98277.34;5090332;28;20138;-69
2023/10/16 11:50:52;;;;;;;0.10;0.10;;;;;;;6.63;93.23;98254.88;5091010;28;20039;-69
2023/10/16 11:53:26;;;;;;;0.10;0.10;;;;;;;6.79;93.42;98269.13;5109950;28;20079;-69
2023/10/16 11:55:56;;;;;;;0.10;0.10;;;;;;;6.80;92.97;98266.13;5092316;28;20513;-69
2023/10/16 11:58:23;;;;;;;0.10;0.10;;;;;;;6.81;92.89;98264.22;5074127;28;20046;-69
2023/10/16 12:00:53;;;;;;;0.10;0.10;;;;;;;6.81;92.61;98258.78;5106205;28;20066;-69
2023/10/16 12:03:20;;;;;;;0.10;0.10;;;;;;;6.78;92.03;98267.50;5084418;28;20082;-69
2023/10/16 12:05:46;;;;;;;0.10;0.10;;;;;;;6.68;92.05;98265.72;5106807;28;20138;-69
2023/10/16 12:08:18;;;;;;;0.10;0.10;;;;;;;6.70;92.45;98259.97;5070060;28;20051;-69
2023/10/16 12:10:46;;;;;;;0.00;0.00;;;;;;;6.54;92.70;98230.25;5089650;28;20044;-69
2023/10/16 12:13:13;;;;;;;0.10;0.10;;;;;;;6.73;93.56;98262.94;5092028;28;20051;-69
2023/10/16 12:15:43;;;;;;;0.00;0.00;;;;;;;6.72;94.42;98257.81;5073974;28;20395;-69
2023/10/16 12:18:12;;;;;;;0.10;0.10;;;;;;;6.72;95.36;98260.53;5108894;28;20052;-70
2023/10/16 12:20:38;;;;;;;0.10;0.10;;;;;;;6.70;95.87;98260.78;5110144;28;20051;-70
2023/10/16 12:23:05;;;;;;;0.10;0.10;;;;;;;6.55;95.29;98256.31;5110809;28;20247;-69
2023/10/16 12:25:34;;;;;;;;;;;;;;;6.54;96.38;98254.69;5090904;28;20044;-69
2023/10/16 12:28:02;;;;;;;0.10;0.10;;;;;;;6.49;97.10;98254.75;5109707;28;19977;-69
2023/10/16 12:30:28;;;;;;;0.00;0.00;;;;;;;6.49;97.35;98257.47;5108901;28;20129;-69
2023/10/16 12:32:56;;;;;;;0.00;0.00;;;;;;;6.50;97.42;98253.66;5069379;28;20106;-66
2023/10/16 12:35:22;;;;;;;0.10;0.10;;;;;;;6.52;97.73;98248.72;5067401;28;20610;-67
2023/10/16 12:37:55;;;;;;;0.10;0.10;;;;;;;6.56;97.41;98247.09;5070657;28;20048;-66
2023/10/16 12:40:27;;;;;;;0.10;0.10;;;;;;;6.47;97.32;98227.06;5078792;28;20048;-66
2023/10/16 12:42:55;;;;;;;0.10;0.10;;;;;;;6.62;96.99;98248.66;5078873;28;20032;-66
2023/10/16 12:45:23;;;;;;;0.10;0.10;;;;;;;6.64;96.35;98251.88;5077645;28;20043;-69
2023/10/16 12:47:51;;;;;;;0.10;0.10;;;;;;;6.69;96.05;98256.47;5064362;28;20047;-70
2023/10/16 12:50:18;;;;;;;0.10;0.10;;;;;;;6.76;95.31;98254.19;5063008;28;20105;-69
2023/10/16 12:52:44;;;;;;;0.00;0.00;;;;;;;6.75;94.93;98258.03;5088143;28;20125;-69
2023/10/16 12:55:10;;;;;;;0.10;0.10;;;;;;;6.74;94.46;98252.88;5052005;28;20503;-71
2023/10/16 12:57:36;;;;;;;0.10;0.10;;;;;;;6.82;93.92;98260.41;5087329;28;20418;-70
2023/10/16 13:00:15;;;;;;;0.10;0.10;;;;;;;6.84;93.25;98255.47;5086729;28;20044;-66
2023/10/16 13:02:45;;;;;;;0.10;0.10;;;;;;;6.83;92.89;98245.72;5084369;28;20134;-66
2023/10/16 13:05:15;;;;;;;0.10;0.10;;;;;;;6.83;92.67;98248.44;5086072;28;20047;-67
2023/10/16 13:07:43;;;;;;;0.10;0.10;;;;;;;6.84;92.39;98255.47;5071035;28;20044;-69
2023/10/16 13:10:14;;;;;;;0.10;0.10;;;;;;;6.86;92.50;98249.78;5081527;28;20208;-66
2023/10/16 13:12:41;;;;;;;0.10;0.10;;;;;;;6.86;92.66;98239.69;5076904;28;20036;-70
2023/10/16 13:15:10;;;;;;;0.10;0.10;;;;;;;6.86;92.62;98250.56;5064039;28;20054;-65
2023/10/16 13:17:37;;;;;;;0.10;0.10;;;;;;;6.79;92.07;98248.22;5078076;28;20095;-69
2023/10/16 13:20:05;;;;;;;0.10;0.10;;;;;;;6.80;92.46;98247.13;5078371;28;20040;-69
2023/10/16 13:22:31;;;;;;;0.13;0.10;;;;;;;6.84;92.46;98255.47;5114235;27;20040;-69
2023/10/16 13:24:59;;;;;;;0.10;0.10;;;;;;;6.84;92.22;98249.25;5082463;28;20044;-69